createdAt,value
2022-12-08T00:02:24.951Z,5.28
2022-12-08T00:05:09.818Z,5.60
2022-12-08T00:07:57.258Z,5.63
2022-12-08T00:10:48.439Z,5.97
2022-12-08T00:13:10.957Z,5.15
2022-12-08T00:15:37.350Z,5.05
2022-12-08T00:18:03.679Z,5.57
2022-12-08T00:20:30.106Z,5.00
2022-12-08T00:22:56.628Z,5.80
2022-12-08T00:25:23.078Z,6.40
2022-12-08T00:27:49.437Z,5.78
2022-12-08T00:30:15.875Z,5.80
2022-12-08T00:32:42.510Z,6.35
2022-12-08T00:35:09.051Z,6.28
2022-12-08T00:37:35.394Z,6.28
2022-12-08T00:40:02.386Z,6.68
2022-12-08T00:42:29.119Z,6.72
2022-12-08T00:44:55.642Z,6.53
2022-12-08T00:47:24.826Z,6.53
2022-12-08T00:49:51.958Z,6.22
2022-12-08T00:52:18.311Z,6.18
2022-12-08T00:54:44.735Z,6.28
2022-12-08T00:57:11.528Z,5.72
2022-12-08T00:59:38.029Z,5.57
2022-12-08T01:02:04.447Z,6.22
2022-12-08T01:04:30.806Z,6.10
2022-12-08T01:06:57.188Z,5.68
2022-12-08T01:09:23.532Z,6.15
2022-12-08T01:11:49.927Z,5.80
2022-12-08T01:14:16.353Z,5.53
2022-12-08T01:16:42.820Z,5.28
2022-12-08T01:19:10.359Z,5.38
2022-12-08T01:21:36.732Z,5.47
2022-12-08T01:24:03.244Z,5.30
2022-12-08T01:26:29.744Z,5.97
2022-12-08T01:28:56.054Z,5.68
2022-12-08T01:31:23.030Z,5.30
2022-12-08T01:33:50.009Z,6.03
2022-12-08T01:36:23.868Z,5.85
2022-12-08T01:38:50.617Z,5.43
2022-12-08T01:41:18.601Z,4.30
2022-12-08T01:43:55.187Z,4.00
2022-12-08T01:46:21.713Z,4.22
2022-12-08T01:48:48.720Z,4.57
2022-12-08T01:51:15.451Z,5.07
2022-12-08T01:53:41.884Z,4.00
2022-12-08T01:56:11.017Z,4.20
2022-12-08T01:58:42.800Z,4.32
2022-12-08T02:01:12.686Z,4.18
2022-12-08T02:03:44.177Z,4.10
2022-12-08T02:06:11.191Z,4.57
2022-12-08T02:08:38.961Z,4.20
2022-12-08T02:11:05.749Z,4.57
2022-12-08T02:13:32.784Z,5.15
2022-12-08T02:16:10.509Z,5.07
2022-12-08T02:18:39.690Z,5.07
2022-12-08T02:21:12.743Z,5.72
2022-12-08T02:23:51.700Z,6.35
2022-12-08T02:26:33.399Z,7.18
2022-12-08T02:29:11.974Z,7.20
2022-12-08T02:31:57.080Z,7.35
2022-12-08T02:34:42.161Z,7.18
2022-12-08T02:37:18.209Z,8.02
2022-12-08T02:39:47.566Z,7.60
2022-12-08T02:42:27.946Z,6.65
2022-12-08T02:45:03.287Z,7.68
2022-12-08T02:47:30.513Z,7.25
2022-12-08T02:49:57.502Z,7.50
2022-12-08T02:52:23.883Z,7.05
2022-12-08T02:54:51.890Z,6.35
2022-12-08T02:57:28.099Z,6.32
2022-12-08T03:00:04.591Z,5.88
2022-12-08T03:02:31.503Z,5.57
2022-12-08T03:05:08.476Z,5.53
2022-12-08T03:07:47.546Z,4.65
2022-12-08T03:10:25.268Z,4.20
2022-12-08T03:12:58.937Z,4.57
2022-12-08T03:15:25.593Z,3.72
2022-12-08T03:17:54.790Z,3.35
2022-12-08T03:20:23.453Z,3.20
2022-12-08T03:22:50.665Z,2.85
2022-12-08T03:25:19.181Z,2.67
2022-12-08T03:27:45.576Z,2.30
2022-12-08T03:30:12.122Z,2.60
2022-12-08T03:32:50.495Z,2.55
2022-12-08T03:35:20.107Z,2.30
2022-12-08T03:37:46.559Z,2.70
2022-12-08T03:40:30.654Z,2.55
2022-12-08T03:43:02.387Z,2.08
2022-12-08T03:45:28.942Z,2.20
2022-12-08T03:47:55.554Z,1.70
2022-12-08T03:50:22.101Z,1.63
2022-12-08T03:52:48.899Z,1.50
2022-12-08T03:55:15.468Z,1.40
2022-12-08T03:57:41.892Z,1.17
2022-12-08T04:00:09.898Z,1.00
2022-12-08T04:02:36.438Z,0.93
2022-12-08T04:05:03.155Z,1.42
2022-12-08T04:07:29.682Z,0.95
2022-12-08T04:09:56.091Z,1.05
2022-12-08T04:12:23.576Z,1.15
2022-12-08T04:14:49.978Z,1.05
2022-12-08T04:17:16.394Z,1.27
2022-12-08T04:19:42.773Z,1.20
2022-12-08T04:22:09.184Z,1.05
2022-12-08T04:24:35.503Z,1.90
2022-12-08T04:27:01.857Z,1.40
2022-12-08T04:29:28.201Z,1.25
2022-12-08T04:31:54.557Z,1.40
2022-12-08T04:34:20.939Z,1.50
2022-12-08T04:36:47.284Z,1.65
2022-12-08T04:39:13.660Z,1.80
2022-12-08T04:41:39.941Z,1.73
2022-12-08T04:44:06.324Z,2.30
2022-12-08T04:46:32.958Z,2.80
2022-12-08T04:48:59.418Z,2.90
2022-12-08T04:51:27.238Z,3.88
2022-12-08T04:53:53.584Z,3.90
2022-12-08T04:56:20.001Z,4.10
2022-12-08T04:58:46.954Z,4.07
2022-12-08T05:01:14.034Z,3.95
2022-12-08T05:03:40.487Z,3.03
2022-12-08T05:06:07.249Z,2.50
2022-12-08T05:08:33.859Z,2.70
2022-12-08T05:11:04.597Z,2.58
2022-12-08T05:13:30.993Z,2.10
2022-12-08T05:16:04.369Z,2.70
2022-12-08T05:18:30.765Z,2.35
2022-12-08T05:20:57.060Z,2.25
2022-12-08T05:23:23.349Z,2.28
2022-12-08T05:25:49.657Z,1.80
2022-12-08T05:28:40.391Z,1.63
2022-12-08T05:31:02.671Z,1.42
2022-12-08T05:33:29.090Z,1.48
2022-12-08T05:35:55.389Z,1.70
2022-12-08T05:38:21.698Z,1.35
2022-12-08T05:40:48.113Z,1.08
2022-12-08T05:43:14.938Z,1.20
2022-12-08T05:45:41.381Z,1.38
2022-12-08T05:48:08.108Z,1.90
2022-12-08T05:50:34.830Z,1.70
2022-12-08T05:53:01.131Z,1.75
2022-12-08T05:55:27.478Z,1.20
2022-12-08T05:57:54.027Z,1.00
2022-12-08T06:00:20.758Z,1.30
2022-12-08T06:02:47.508Z,1.27
2022-12-08T06:05:14.221Z,1.75
2022-12-08T06:07:40.614Z,1.58
2022-12-08T06:10:07.570Z,1.30
2022-12-08T06:12:34.137Z,1.38
2022-12-08T06:15:00.686Z,1.40
2022-12-08T06:17:27.032Z,1.80
2022-12-08T06:19:53.615Z,1.45
2022-12-08T06:22:20.002Z,1.52
2022-12-08T06:24:46.337Z,1.83
2022-12-08T06:27:12.702Z,1.60
2022-12-08T06:29:39.081Z,1.70
2022-12-08T06:32:05.657Z,1.08
2022-12-08T06:34:32.076Z,1.50
2022-12-08T06:36:58.352Z,4.45
2022-12-08T06:39:27.766Z,2.50
2022-12-08T06:42:13.025Z,2.60
2022-12-08T06:44:39.457Z,2.50
2022-12-08T06:47:05.793Z,1.60
2022-12-08T06:49:32.067Z,1.25
2022-12-08T06:51:58.336Z,1.35
2022-12-08T06:54:24.649Z,1.70
2022-12-08T06:56:51.064Z,1.90
2022-12-08T06:59:20.548Z,4.50
2022-12-08T07:01:47.125Z,2.38
2022-12-08T07:04:13.604Z,1.92
2022-12-08T07:06:40.037Z,1.60
2022-12-08T07:09:06.443Z,1.60
2022-12-08T07:11:32.875Z,2.15
2022-12-08T07:13:59.204Z,2.15
2022-12-08T07:16:25.558Z,2.70
2022-12-08T07:18:51.887Z,3.00
2022-12-08T07:21:18.494Z,3.15
2022-12-08T07:23:54.343Z,2.83
2022-12-08T07:26:23.672Z,2.33
2022-12-08T07:28:50.136Z,2.85
2022-12-08T07:31:20.682Z,2.00
2022-12-08T07:33:47.448Z,3.08
2022-12-08T07:36:13.911Z,2.33
2022-12-08T07:38:40.360Z,2.50
2022-12-08T07:41:11.128Z,6.65
2022-12-08T07:43:37.724Z,4.45
2022-12-08T07:46:04.139Z,4.00
2022-12-08T07:48:30.575Z,4.70
2022-12-08T07:51:01.216Z,5.40
2022-12-08T07:53:28.061Z,3.60
2022-12-08T07:55:54.463Z,3.60
2022-12-08T07:58:20.781Z,4.05
2022-12-08T08:00:50.376Z,3.85
2022-12-08T08:03:16.880Z,9.63
2022-12-08T08:05:44.220Z,5.18
2022-12-08T08:08:11.362Z,6.40
2022-12-08T08:10:37.785Z,3.55
2022-12-08T08:13:04.119Z,3.72
2022-12-08T08:15:33.576Z,1.70
2022-12-08T08:18:00.126Z,1.95
2022-12-08T08:20:26.838Z,2.97
2022-12-08T08:22:53.216Z,2.85
2022-12-08T08:25:22.886Z,1.30
2022-12-08T08:27:49.509Z,1.80
2022-12-08T08:30:20.422Z,1.50
2022-12-08T08:32:47.658Z,1.40
2022-12-08T08:35:14.143Z,2.10
2022-12-08T08:37:43.143Z,2.00
2022-12-08T08:40:13.529Z,1.67
2022-12-08T08:42:39.955Z,2.25
2022-12-08T08:45:06.552Z,2.08
2022-12-08T08:47:32.870Z,1.90
2022-12-08T08:49:59.266Z,1.95
2022-12-08T08:52:25.820Z,2.50
2022-12-08T08:54:52.174Z,1.50
2022-12-08T08:57:25.105Z,1.60
2022-12-08T08:59:51.959Z,1.45
2022-12-08T09:02:19.248Z,1.00
2022-12-08T09:04:46.097Z,1.10
2022-12-08T09:07:13.346Z,1.13
2022-12-08T09:09:39.788Z,1.20
2022-12-08T09:12:06.492Z,1.15
2022-12-08T09:14:32.784Z,0.85
2022-12-08T09:16:59.249Z,1.20
2022-12-08T09:19:25.710Z,1.10
2022-12-08T09:21:55.158Z,1.33
2022-12-08T09:24:21.500Z,1.10
2022-12-08T09:26:48.279Z,1.10
2022-12-08T09:29:14.811Z,0.93
2022-12-08T09:31:41.273Z,1.23
2022-12-08T09:34:07.679Z,1.10
2022-12-08T09:36:34.150Z,1.30
2022-12-08T09:39:03.387Z,1.13
2022-12-08T09:41:40.429Z,0.80
2022-12-08T09:44:28.655Z,0.87
2022-12-08T09:46:55.896Z,1.02
2022-12-08T09:49:25.881Z,1.02
2022-12-08T09:51:52.517Z,1.23
2022-12-08T09:54:24.356Z,1.02
2022-12-08T09:56:53.816Z,1.00
2022-12-08T09:59:25.987Z,0.93
2022-12-08T10:01:52.815Z,0.90
2022-12-08T10:04:36.430Z,1.30
2022-12-08T10:07:15.741Z,1.58
2022-12-08T10:09:42.075Z,1.73
2022-12-08T10:12:17.553Z,1.30
2022-12-08T10:14:46.160Z,1.13
2022-12-08T10:17:15.997Z,1.30
2022-12-08T10:19:46.982Z,1.88
2022-12-08T10:24:43.929Z,1.38
2022-12-08T10:27:11.632Z,1.55
2022-12-08T10:29:38.262Z,1.40
2022-12-08T10:32:13.868Z,1.25
2022-12-08T10:34:58.764Z,1.80
2022-12-08T10:37:25.153Z,1.20
2022-12-08T10:39:58.736Z,1.20
2022-12-08T10:42:25.375Z,1.13
2022-12-08T10:45:00.351Z,1.17
2022-12-08T10:47:35.184Z,1.27
2022-12-08T10:50:21.701Z,1.40
2022-12-08T10:52:55.985Z,1.27
2022-12-08T10:55:23.040Z,0.90
2022-12-08T10:57:49.683Z,1.00
2022-12-08T11:00:18.091Z,1.25
2022-12-08T11:02:55.286Z,1.40
2022-12-08T11:05:22.490Z,1.10
2022-12-08T11:07:51.437Z,1.13
2022-12-08T11:10:18.984Z,1.00
2022-12-08T11:12:45.545Z,0.98
2022-12-08T11:15:16.067Z,1.10
2022-12-08T11:17:44.340Z,0.95
2022-12-08T11:20:10.730Z,1.40
2022-12-08T11:22:41.141Z,1.42
2022-12-08T11:25:07.459Z,2.60
2022-12-08T11:27:44.642Z,2.20
2022-12-08T11:30:24.251Z,1.98
2022-12-08T11:33:00.022Z,1.75
2022-12-08T11:35:29.571Z,1.60
2022-12-08T11:38:08.129Z,2.10
2022-12-08T11:40:44.559Z,1.60
2022-12-08T11:43:29.459Z,1.85
2022-12-08T11:46:00.268Z,1.92
2022-12-08T11:50:55.511Z,1.67
2022-12-08T11:53:31.624Z,1.33
2022-12-08T11:56:00.456Z,0.70
2022-12-08T11:58:31.913Z,0.70
2022-12-08T12:00:58.621Z,0.80
2022-12-08T12:03:31.301Z,0.70
2022-12-08T12:06:38.313Z,0.70
2022-12-08T12:08:59.353Z,0.70
2022-12-08T12:12:10.911Z,0.70
2022-12-08T12:14:37.637Z,0.80
2022-12-08T12:17:05.187Z,0.60
2022-12-08T12:19:37.344Z,0.50
2022-12-08T12:22:14.216Z,1.00
2022-12-08T12:24:43.071Z,0.63
2022-12-08T12:27:15.684Z,0.50
2022-12-08T12:29:50.948Z,0.70
2022-12-08T12:32:22.057Z,0.90
2022-12-08T12:34:58.984Z,0.93
2022-12-08T12:37:43.479Z,1.30
2022-12-08T12:40:15.995Z,1.10
2022-12-08T12:42:43.664Z,1.20
2022-12-08T12:45:22.167Z,1.23
2022-12-08T12:48:00.630Z,1.30
2022-12-08T12:50:33.246Z,1.67
2022-12-08T12:53:02.670Z,1.88
2022-12-08T12:55:49.185Z,1.60
2022-12-08T12:58:27.638Z,1.85
2022-12-08T13:01:16.970Z,1.60
2022-12-08T13:03:45.740Z,1.67
2022-12-08T13:06:14.762Z,1.50
2022-12-08T13:08:49.693Z,1.45
2022-12-08T13:11:16.456Z,1.30
2022-12-08T13:14:06.345Z,1.30
2022-12-08T13:16:37.615Z,1.10
2022-12-08T13:19:04.716Z,1.10
2022-12-08T13:21:35.761Z,1.40
2022-12-08T13:24:12.930Z,1.30
2022-12-08T13:26:49.560Z,1.30
2022-12-08T13:29:21.638Z,1.20
2022-12-08T13:31:50.931Z,1.33
2022-12-08T13:34:25.290Z,1.50
2022-12-08T13:36:57.528Z,1.90
2022-12-08T13:39:29.593Z,2.10
2022-12-08T13:42:02.063Z,2.70
2022-12-08T13:45:19.022Z,3.05
2022-12-08T13:47:34.860Z,2.40
2022-12-08T13:58:46.977Z,2.75
2022-12-08T14:01:19.349Z,2.63
2022-12-08T14:04:30.951Z,2.53
2022-12-08T14:06:52.734Z,2.40
2022-12-08T14:09:20.972Z,3.08
2022-12-08T14:11:52.817Z,3.00
2022-12-08T14:15:00.664Z,3.17
2022-12-08T14:17:18.451Z,3.13
2022-12-08T14:19:52.217Z,3.10
2022-12-08T14:22:18.597Z,2.92
2022-12-08T14:24:46.147Z,3.15
2022-12-08T14:27:14.949Z,2.92
2022-12-08T14:29:44.407Z,2.88
2022-12-08T14:32:21.610Z,3.05
2022-12-08T14:34:58.770Z,2.97
2022-12-08T14:37:25.809Z,3.13
2022-12-08T14:39:52.490Z,3.00
2022-12-08T14:42:24.154Z,2.75
2022-12-08T14:44:59.434Z,2.90
2022-12-08T14:47:29.115Z,3.22
2022-12-08T14:49:55.460Z,2.90
2022-12-08T14:52:21.862Z,3.70
2022-12-08T14:54:49.959Z,3.58
2022-12-08T14:57:16.389Z,3.70
2022-12-08T14:59:43.358Z,4.03
2022-12-08T15:02:15.712Z,3.72
2022-12-08T15:04:44.310Z,4.13
2022-12-08T15:07:13.445Z,4.38
2022-12-08T15:09:48.651Z,4.43
2022-12-08T15:12:15.008Z,6.30
2022-12-08T15:15:01.516Z,16.40
2022-12-08T15:17:27.804Z,9.45
2022-12-08T15:19:57.820Z,7.03
2022-12-08T15:22:24.464Z,7.27
2022-12-08T15:24:50.967Z,6.57
2022-12-08T15:27:20.933Z,5.78
2022-12-08T15:29:48.060Z,5.73
2022-12-08T15:32:17.356Z,5.32
2022-12-08T15:34:43.660Z,4.22
2022-12-08T15:37:19.495Z,4.82
2022-12-08T15:39:45.764Z,5.22
2022-12-08T15:42:12.909Z,5.32
2022-12-08T15:44:39.451Z,5.30
2022-12-08T15:47:06.504Z,6.22
2022-12-08T15:49:32.906Z,5.35
2022-12-08T15:52:10.621Z,5.15
2022-12-08T15:54:37.880Z,5.00
2022-12-08T15:57:19.273Z,4.65
2022-12-08T15:59:48.762Z,4.93
2022-12-08T16:02:20.879Z,5.03
2022-12-08T16:07:38.037Z,5.20
2022-12-08T16:10:05.630Z,4.90
2022-12-08T16:16:00.345Z,4.72
2022-12-08T16:18:26.790Z,4.50
2022-12-08T16:23:44.236Z,4.05
2022-12-08T16:26:24.425Z,5.50
2022-12-08T16:28:55.386Z,4.25
2022-12-08T16:31:23.371Z,5.18
2022-12-08T16:33:49.948Z,4.47
2022-12-08T16:36:16.486Z,4.13
2022-12-08T16:38:42.852Z,6.35
2022-12-08T16:41:34.246Z,7.55
2022-12-08T16:44:04.599Z,5.25
2022-12-08T16:46:31.044Z,4.90
2022-12-08T16:48:58.881Z,5.25
2022-12-08T16:51:27.361Z,5.22
2022-12-08T16:53:54.126Z,5.25
2022-12-08T16:56:21.698Z,5.35
2022-12-08T16:58:48.090Z,5.95
2022-12-08T17:01:15.464Z,5.43
2022-12-08T17:03:51.622Z,5.45
2022-12-08T17:06:27.651Z,5.78
2022-12-08T17:08:54.125Z,6.38
2022-12-08T17:11:24.095Z,5.88
2022-12-08T17:13:50.575Z,5.60
2022-12-08T17:16:19.070Z,6.00
2022-12-08T17:18:45.775Z,5.82
2022-12-08T17:21:12.986Z,6.38
2022-12-08T17:23:40.059Z,6.35
2022-12-08T17:26:06.554Z,7.00
2022-12-08T17:28:58.833Z,7.75
2022-12-08T17:31:21.382Z,7.95
2022-12-08T17:33:50.048Z,8.95
2022-12-08T17:36:17.025Z,9.30
2022-12-08T17:38:43.648Z,8.82
2022-12-08T17:41:10.642Z,9.20
2022-12-08T17:43:37.309Z,9.43
2022-12-08T17:46:04.086Z,9.30
2022-12-08T17:48:30.508Z,8.60
2022-12-08T17:50:56.824Z,8.90
2022-12-08T17:53:23.557Z,8.68
2022-12-08T17:55:54.299Z,8.48
2022-12-08T17:58:20.960Z,7.55
2022-12-08T18:00:47.688Z,7.93
2022-12-08T18:03:14.174Z,7.53
2022-12-08T18:05:40.535Z,7.95
2022-12-08T18:08:06.889Z,8.60
2022-12-08T18:10:33.226Z,7.57
2022-12-08T18:12:59.630Z,8.23
2022-12-08T18:15:26.008Z,8.02
2022-12-08T18:17:52.366Z,7.85
2022-12-08T18:20:18.653Z,8.40
2022-12-08T18:22:45.320Z,8.55
2022-12-08T18:25:12.331Z,9.10
2022-12-08T18:27:42.998Z,7.82
2022-12-08T18:30:13.456Z,8.00
2022-12-08T18:32:39.944Z,8.02
2022-12-08T18:35:06.877Z,8.10
2022-12-08T18:37:34.256Z,7.97
2022-12-08T18:40:00.619Z,7.97
2022-12-08T18:42:28.245Z,7.65
2022-12-08T18:44:58.678Z,8.10
2022-12-08T18:47:25.034Z,7.05
2022-12-08T18:49:54.700Z,7.53
2022-12-08T18:52:28.278Z,8.10
2022-12-08T18:55:06.477Z,8.77
2022-12-08T18:57:33.567Z,14.73
2022-12-08T18:59:59.924Z,16.58
2022-12-08T19:02:26.292Z,13.93
2022-12-08T19:04:54.909Z,14.40
2022-12-08T19:07:21.259Z,13.10
2022-12-08T19:09:47.701Z,11.13
2022-12-08T19:12:14.132Z,10.55
2022-12-08T19:14:40.939Z,9.35
2022-12-08T19:17:07.537Z,9.20
2022-12-08T19:19:34.543Z,9.77
2022-12-08T19:22:00.995Z,9.93
2022-12-08T19:24:27.319Z,10.02
2022-12-08T19:26:53.781Z,10.70
2022-12-08T19:29:20.137Z,10.98
2022-12-08T19:31:46.593Z,10.18
2022-12-08T19:34:13.616Z,11.35
2022-12-08T19:36:42.932Z,11.40
2022-12-08T19:39:38.350Z,12.13
2022-12-08T19:42:24.528Z,10.90
2022-12-08T19:44:53.657Z,11.32
2022-12-08T19:47:20.985Z,10.77
2022-12-08T19:49:47.706Z,11.55
2022-12-08T19:52:14.071Z,11.23
2022-12-08T19:54:40.402Z,12.98
2022-12-08T19:57:06.685Z,12.15
2022-12-08T19:59:32.995Z,11.70
2022-12-08T20:01:59.510Z,12.82
2022-12-08T20:04:26.830Z,13.23
2022-12-08T20:06:53.795Z,11.95
2022-12-08T20:09:20.694Z,11.98
2022-12-08T20:11:47.054Z,14.20
2022-12-08T20:14:19.595Z,14.05
2022-12-08T20:16:46.061Z,14.15
2022-12-08T20:19:12.624Z,13.57
2022-12-08T20:21:39.563Z,13.75
2022-12-08T20:24:06.149Z,13.57
2022-12-08T20:26:32.504Z,14.10
2022-12-08T20:28:58.846Z,14.80
2022-12-08T20:31:26.711Z,13.85
2022-12-08T20:33:53.671Z,14.23
2022-12-08T20:36:20.648Z,14.23
2022-12-08T20:38:47.990Z,13.73
2022-12-08T20:41:17.797Z,16.40
2022-12-08T20:43:44.680Z,14.68
2022-12-08T20:46:12.436Z,14.50
2022-12-08T20:48:38.922Z,13.68
2022-12-08T20:51:05.450Z,13.18
2022-12-08T20:53:34.519Z,14.27
2022-12-08T20:56:00.844Z,13.55
2022-12-08T20:58:27.272Z,14.55
2022-12-08T21:00:53.810Z,13.27
2022-12-08T21:03:20.433Z,15.20
2022-12-08T21:06:04.158Z,15.88
2022-12-08T21:08:30.726Z,14.05
2022-12-08T21:10:57.335Z,14.70
2022-12-08T21:13:23.879Z,17.42
2022-12-08T21:15:50.530Z,15.82
2022-12-08T21:18:17.119Z,14.88
2022-12-08T21:20:44.107Z,14.93
2022-12-08T21:23:11.389Z,15.10
2022-12-08T21:25:41.678Z,14.77
2022-12-08T21:28:08.104Z,14.05
2022-12-08T21:30:34.567Z,15.07
2022-12-08T21:33:01.208Z,15.70
2022-12-08T21:35:27.667Z,16.60
2022-12-08T21:37:54.331Z,15.85
2022-12-08T21:40:20.813Z,17.15
2022-12-08T21:42:47.370Z,17.23
2022-12-08T21:45:15.481Z,17.08
2022-12-08T21:47:42.374Z,15.82
2022-12-08T21:50:09.734Z,15.50
2022-12-08T21:52:37.599Z,16.42
2022-12-08T21:55:04.261Z,16.13
2022-12-08T21:57:30.702Z,15.95
2022-12-08T21:59:57.401Z,15.05
2022-12-08T22:02:24.033Z,14.88
2022-12-08T22:04:50.980Z,14.70
2022-12-08T22:07:17.513Z,14.48
2022-12-08T22:09:44.151Z,15.48
2022-12-08T22:12:13.868Z,15.38
2022-12-08T22:14:40.433Z,14.93
2022-12-08T22:17:07.179Z,16.20
2022-12-08T22:19:36.559Z,16.23
2022-12-08T22:22:03.147Z,15.82
2022-12-08T22:24:32.470Z,16.85
2022-12-08T22:26:59.232Z,16.25
2022-12-08T22:29:25.706Z,16.40
2022-12-08T22:31:52.277Z,16.77
2022-12-08T22:34:18.717Z,16.88
2022-12-08T22:36:45.265Z,15.05
2022-12-08T22:39:12.224Z,16.23
2022-12-08T22:41:38.807Z,15.75
2022-12-08T22:44:06.143Z,18.05
2022-12-08T22:46:32.607Z,16.80
2022-12-08T22:48:59.207Z,17.00
2022-12-08T22:51:25.818Z,17.92
2022-12-08T22:53:52.232Z,18.50
2022-12-08T22:56:19.678Z,17.65
2022-12-08T22:58:48.381Z,14.93
2022-12-08T23:01:25.492Z,15.63
2022-12-08T23:03:52.084Z,17.73
2022-12-08T23:06:18.728Z,17.48
2022-12-08T23:08:45.845Z,18.15
2022-12-08T23:11:12.890Z,17.38
2022-12-08T23:13:39.848Z,17.17
2022-12-08T23:16:07.460Z,15.55
2022-12-08T23:18:33.934Z,15.77
2022-12-08T23:21:04.689Z,15.57
2022-12-08T23:23:31.111Z,13.18
2022-12-08T23:25:57.403Z,15.50
2022-12-08T23:28:23.838Z,15.07
2022-12-08T23:30:52.597Z,14.05
2022-12-08T23:33:19.011Z,14.27
2022-12-08T23:35:45.425Z,16.25
2022-12-08T23:38:11.768Z,15.98
2022-12-08T23:40:38.075Z,17.10
2022-12-08T23:43:05.465Z,16.75
2022-12-08T23:45:31.935Z,16.80
2022-12-08T23:47:58.413Z,17.35
2022-12-08T23:50:24.906Z,17.33
2022-12-08T23:52:51.439Z,17.73
2022-12-08T23:55:17.714Z,18.33
2022-12-08T23:57:46.824Z,17.15
